sensor_id;sensor_type;location;lat;lon;timestamp;P1;durP1;ratioP1;P2;durP2;ratioP2
12593;SDS011;6362;50.208;9.182;2022-11-03T00:00:27;7.90;;;2.10;;
12593;SDS011;6362;50.208;9.182;2022-11-03T00:02:52;12.23;;;2.20;;
12593;SDS011;6362;50.208;9.182;2022-11-03T00:05:18;12.60;;;2.35;;
12593;SDS011;6362;50.208;9.182;2022-11-03T00:08:02;9.32;;;2.20;;
12593;SDS011;6362;50.208;9.182;2022-11-03T00:10:28;13.02;;;2.40;;
12593;SDS011;6362;50.208;9.182;2022-11-03T00:12:54;7.53;;;1.70;;
12593;SDS011;6362;50.208;9.182;2022-11-03T00:15:19;8.98;;;1.98;;
12593;SDS011;6362;50.208;9.182;2022-11-03T00:17:45;11.25;;;2.13;;
12593;SDS011;6362;50.208;9.182;2022-11-03T00:20:11;9.68;;;2.50;;
12593;SDS011;6362;50.208;9.182;2022-11-03T00:22:36;8.80;;;1.90;;
12593;SDS011;6362;50.208;9.182;2022-11-03T00:25:02;8.18;;;1.98;;
12593;SDS011;6362;50.208;9.182;2022-11-03T00:27:27;11.18;;;2.00;;
12593;SDS011;6362;50.208;9.182;2022-11-03T00:29:53;10.60;;;1.90;;
12593;SDS011;6362;50.208;9.182;2022-11-03T00:32:18;13.25;;;3.50;;
12593;SDS011;6362;50.208;9.182;2022-11-03T00:34:43;11.00;;;3.00;;
12593;SDS011;6362;50.208;9.182;2022-11-03T00:37:09;10.13;;;3.00;;
12593;SDS011;6362;50.208;9.182;2022-11-03T00:39:34;11.05;;;2.20;;
12593;SDS011;6362;50.208;9.182;2022-11-03T00:42:00;10.88;;;2.08;;
12593;SDS011;6362;50.208;9.182;2022-11-03T00:44:25;6.93;;;1.80;;
12593;SDS011;6362;50.208;9.182;2022-11-03T00:46:51;12.85;;;2.80;;
12593;SDS011;6362;50.208;9.182;2022-11-03T00:49:17;11.80;;;2.67;;
12593;SDS011;6362;50.208;9.182;2022-11-03T00:51:42;12.27;;;2.22;;
12593;SDS011;6362;50.208;9.182;2022-11-03T00:54:08;12.00;;;2.20;;
12593;SDS011;6362;50.208;9.182;2022-11-03T00:56:34;10.93;;;2.58;;
12593;SDS011;6362;50.208;9.182;2022-11-03T00:59:02;10.93;;;2.70;;
12593;SDS011;6362;50.208;9.182;2022-11-03T01:01:30;14.95;;;1.90;;
12593;SDS011;6362;50.208;9.182;2022-11-03T01:03:57;8.50;;;1.77;;
12593;SDS011;6362;50.208;9.182;2022-11-03T01:06:43;8.30;;;1.95;;
12593;SDS011;6362;50.208;9.182;2022-11-03T01:09:18;12.85;;;2.25;;
12593;SDS011;6362;50.208;9.182;2022-11-03T01:14:22;8.52;;;2.38;;
12593;SDS011;6362;50.208;9.182;2022-11-03T01:16:49;8.00;;;2.33;;
12593;SDS011;6362;50.208;9.182;2022-11-03T01:19:15;10.02;;;2.08;;
12593;SDS011;6362;50.208;9.182;2022-11-03T01:21:40;9.05;;;1.90;;
12593;SDS011;6362;50.208;9.182;2022-11-03T01:24:07;11.80;;;2.45;;
12593;SDS011;6362;50.208;9.182;2022-11-03T01:26:32;10.95;;;1.67;;
12593;SDS011;6362;50.208;9.182;2022-11-03T01:28:59;9.82;;;1.63;;
12593;SDS011;6362;50.208;9.182;2022-11-03T01:31:25;8.80;;;2.30;;
12593;SDS011;6362;50.208;9.182;2022-11-03T01:33:52;8.45;;;2.38;;
12593;SDS011;6362;50.208;9.182;2022-11-03T01:36:18;9.43;;;2.65;;
12593;SDS011;6362;50.208;9.182;2022-11-03T01:38:44;7.10;;;2.20;;
12593;SDS011;6362;50.208;9.182;2022-11-03T01:41:18;9.43;;;2.10;;
12593;SDS011;6362;50.208;9.182;2022-11-03T01:44:31;15.05;;;2.25;;
12593;SDS011;6362;50.208;9.182;2022-11-03T01:46:30;7.20;;;1.85;;
12593;SDS011;6362;50.208;9.182;2022-11-03T01:49:01;9.20;;;2.20;;
12593;SDS011;6362;50.208;9.182;2022-11-03T01:51:32;7.70;;;2.17;;
12593;SDS011;6362;50.208;9.182;2022-11-03T01:54:02;5.53;;;2.88;;
12593;SDS011;6362;50.208;9.182;2022-11-03T01:56:31;6.80;;;2.42;;
12593;SDS011;6362;50.208;9.182;2022-11-03T01:58:59;11.45;;;2.95;;
12593;SDS011;6362;50.208;9.182;2022-11-03T02:01:25;16.48;;;2.88;;
12593;SDS011;6362;50.208;9.182;2022-11-03T02:03:52;7.20;;;2.80;;
12593;SDS011;6362;50.208;9.182;2022-11-03T02:06:24;9.70;;;3.08;;
12593;SDS011;6362;50.208;9.182;2022-11-03T02:08:59;12.05;;;3.13;;
12593;SDS011;6362;50.208;9.182;2022-11-03T02:11:33;11.20;;;3.28;;
12593;SDS011;6362;50.208;9.182;2022-11-03T02:14:19;12.70;;;3.97;;
12593;SDS011;6362;50.208;9.182;2022-11-03T02:16:55;9.55;;;2.90;;
12593;SDS011;6362;50.208;9.182;2022-11-03T02:21:57;14.88;;;4.82;;
12593;SDS011;6362;50.208;9.182;2022-11-03T02:24:32;12.90;;;3.83;;
12593;SDS011;6362;50.208;9.182;2022-11-03T02:27:14;8.38;;;3.42;;
12593;SDS011;6362;50.208;9.182;2022-11-03T02:29:39;9.18;;;3.65;;
12593;SDS011;6362;50.208;9.182;2022-11-03T02:32:06;16.02;;;3.10;;
12593;SDS011;6362;50.208;9.182;2022-11-03T02:34:42;9.30;;;3.53;;
12593;SDS011;6362;50.208;9.182;2022-11-03T02:37:19;11.45;;;3.92;;
12593;SDS011;6362;50.208;9.182;2022-11-03T02:39:49;11.65;;;3.97;;
12593;SDS011;6362;50.208;9.182;2022-11-03T02:42:20;16.80;;;3.75;;
12593;SDS011;6362;50.208;9.182;2022-11-03T02:44:48;10.77;;;3.83;;
12593;SDS011;6362;50.208;9.182;2022-11-03T02:47:16;15.88;;;4.65;;
12593;SDS011;6362;50.208;9.182;2022-11-03T02:49:46;20.40;;;4.20;;
12593;SDS011;6362;50.208;9.182;2022-11-03T02:52:33;12.10;;;3.90;;
12593;SDS011;6362;50.208;9.182;2022-11-03T02:55:00;13.48;;;4.13;;
12593;SDS011;6362;50.208;9.182;2022-11-03T02:57:35;12.40;;;4.80;;
12593;SDS011;6362;50.208;9.182;2022-11-03T03:00:07;8.55;;;3.58;;
12593;SDS011;6362;50.208;9.182;2022-11-03T03:02:40;9.95;;;3.45;;
12593;SDS011;6362;50.208;9.182;2022-11-03T03:05:13;15.98;;;4.50;;
12593;SDS011;6362;50.208;9.182;2022-11-03T03:07:43;12.45;;;4.25;;
12593;SDS011;6362;50.208;9.182;2022-11-03T03:10:17;12.85;;;4.10;;
12593;SDS011;6362;50.208;9.182;2022-11-03T03:12:46;11.80;;;3.37;;
12593;SDS011;6362;50.208;9.182;2022-11-03T03:15:15;13.98;;;3.72;;
12593;SDS011;6362;50.208;9.182;2022-11-03T03:17:50;9.63;;;4.40;;
12593;SDS011;6362;50.208;9.182;2022-11-03T03:22:45;10.35;;;3.95;;
12593;SDS011;6362;50.208;9.182;2022-11-03T03:25:22;8.55;;;4.03;;
12593;SDS011;6362;50.208;9.182;2022-11-03T03:27:56;14.57;;;4.85;;
12593;SDS011;6362;50.208;9.182;2022-11-03T03:30:26;13.20;;;4.28;;
12593;SDS011;6362;50.208;9.182;2022-11-03T03:32:53;11.80;;;4.60;;
12593;SDS011;6362;50.208;9.182;2022-11-03T03:35:22;12.57;;;4.30;;
12593;SDS011;6362;50.208;9.182;2022-11-03T03:37:52;14.43;;;4.38;;
12593;SDS011;6362;50.208;9.182;2022-11-03T03:40:23;12.75;;;3.65;;
12593;SDS011;6362;50.208;9.182;2022-11-03T03:42:53;11.57;;;3.35;;
12593;SDS011;6362;50.208;9.182;2022-11-03T03:45:19;11.70;;;2.65;;
12593;SDS011;6362;50.208;9.182;2022-11-03T03:47:45;9.95;;;3.53;;
12593;SDS011;6362;50.208;9.182;2022-11-03T03:50:12;8.52;;;2.42;;
12593;SDS011;6362;50.208;9.182;2022-11-03T03:52:37;9.00;;;3.50;;
12593;SDS011;6362;50.208;9.182;2022-11-03T03:55:03;14.27;;;3.50;;
12593;SDS011;6362;50.208;9.182;2022-11-03T03:57:36;9.52;;;3.20;;
12593;SDS011;6362;50.208;9.182;2022-11-03T04:00:01;11.82;;;2.53;;
12593;SDS011;6362;50.208;9.182;2022-11-03T04:02:28;11.48;;;1.90;;
12593;SDS011;6362;50.208;9.182;2022-11-03T04:04:53;8.90;;;2.20;;
12593;SDS011;6362;50.208;9.182;2022-11-03T04:07:19;10.60;;;2.78;;
12593;SDS011;6362;50.208;9.182;2022-11-03T04:12:28;10.05;;;3.50;;
12593;SDS011;6362;50.208;9.182;2022-11-03T04:15:12;9.38;;;2.58;;
12593;SDS011;6362;50.208;9.182;2022-11-03T04:17:57;13.82;;;2.83;;
12593;SDS011;6362;50.208;9.182;2022-11-03T04:20:41;11.07;;;3.10;;
12593;SDS011;6362;50.208;9.182;2022-11-03T04:25:51;8.55;;;4.00;;
12593;SDS011;6362;50.208;9.182;2022-11-03T04:28:19;11.13;;;4.07;;
12593;SDS011;6362;50.208;9.182;2022-11-03T04:30:45;10.98;;;4.20;;
12593;SDS011;6362;50.208;9.182;2022-11-03T04:33:12;8.45;;;3.75;;
12593;SDS011;6362;50.208;9.182;2022-11-03T04:35:40;16.33;;;4.05;;
12593;SDS011;6362;50.208;9.182;2022-11-03T04:40:37;8.27;;;3.47;;
12593;SDS011;6362;50.208;9.182;2022-11-03T04:43:10;11.23;;;4.30;;
12593;SDS011;6362;50.208;9.182;2022-11-03T04:45:42;7.55;;;3.40;;
12593;SDS011;6362;50.208;9.182;2022-11-03T04:48:10;11.48;;;4.28;;
12593;SDS011;6362;50.208;9.182;2022-11-03T04:50:37;7.72;;;3.55;;
12593;SDS011;6362;50.208;9.182;2022-11-03T04:53:04;13.25;;;5.10;;
12593;SDS011;6362;50.208;9.182;2022-11-03T04:55:38;10.27;;;3.80;;
12593;SDS011;6362;50.208;9.182;2022-11-03T04:58:20;9.10;;;3.95;;
12593;SDS011;6362;50.208;9.182;2022-11-03T05:00:52;6.32;;;3.03;;
12593;SDS011;6362;50.208;9.182;2022-11-03T05:03:27;13.35;;;3.20;;
12593;SDS011;6362;50.208;9.182;2022-11-03T05:05:55;8.13;;;3.05;;
12593;SDS011;6362;50.208;9.182;2022-11-03T05:08:21;10.35;;;3.08;;
12593;SDS011;6362;50.208;9.182;2022-11-03T05:10:48;8.52;;;3.38;;
12593;SDS011;6362;50.208;9.182;2022-11-03T05:13:21;10.05;;;3.30;;
12593;SDS011;6362;50.208;9.182;2022-11-03T05:15:51;9.55;;;2.95;;
12593;SDS011;6362;50.208;9.182;2022-11-03T05:18:19;11.52;;;3.85;;
12593;SDS011;6362;50.208;9.182;2022-11-03T05:20:50;12.88;;;3.75;;
12593;SDS011;6362;50.208;9.182;2022-11-03T05:23:20;9.77;;;3.20;;
12593;SDS011;6362;50.208;9.182;2022-11-03T05:25:48;8.10;;;3.45;;
12593;SDS011;6362;50.208;9.182;2022-11-03T05:33:44;11.88;;;3.22;;
12593;SDS011;6362;50.208;9.182;2022-11-03T05:36:12;14.23;;;3.42;;
12593;SDS011;6362;50.208;9.182;2022-11-03T05:38:40;13.52;;;3.63;;
12593;SDS011;6362;50.208;9.182;2022-11-03T05:41:39;14.15;;;3.13;;
12593;SDS011;6362;50.208;9.182;2022-11-03T05:44:02;11.73;;;3.00;;
12593;SDS011;6362;50.208;9.182;2022-11-03T05:46:54;7.68;;;2.70;;
12593;SDS011;6362;50.208;9.182;2022-11-03T05:49:21;9.13;;;3.35;;
12593;SDS011;6362;50.208;9.182;2022-11-03T05:51:46;10.07;;;3.63;;
12593;SDS011;6362;50.208;9.182;2022-11-03T05:54:18;10.15;;;3.72;;
12593;SDS011;6362;50.208;9.182;2022-11-03T05:56:47;8.10;;;2.55;;
12593;SDS011;6362;50.208;9.182;2022-11-03T05:59:13;14.75;;;3.55;;
12593;SDS011;6362;50.208;9.182;2022-11-03T06:01:41;9.23;;;3.17;;
12593;SDS011;6362;50.208;9.182;2022-11-03T06:06:49;8.23;;;3.08;;
12593;SDS011;6362;50.208;9.182;2022-11-03T06:09:22;8.35;;;2.85;;
12593;SDS011;6362;50.208;9.182;2022-11-03T06:11:50;14.68;;;3.10;;
12593;SDS011;6362;50.208;9.182;2022-11-03T06:14:21;15.02;;;5.05;;
12593;SDS011;6362;50.208;9.182;2022-11-03T06:19:38;11.70;;;3.40;;
12593;SDS011;6362;50.208;9.182;2022-11-03T06:22:13;10.93;;;3.50;;
12593;SDS011;6362;50.208;9.182;2022-11-03T06:24:43;11.13;;;3.30;;
12593;SDS011;6362;50.208;9.182;2022-11-03T06:27:19;9.73;;;3.28;;
12593;SDS011;6362;50.208;9.182;2022-11-03T06:29:51;11.10;;;2.80;;
12593;SDS011;6362;50.208;9.182;2022-11-03T06:32:20;14.45;;;4.20;;
12593;SDS011;6362;50.208;9.182;2022-11-03T06:34:46;10.07;;;3.17;;
12593;SDS011;6362;50.208;9.182;2022-11-03T06:39:46;13.70;;;4.60;;
12593;SDS011;6362;50.208;9.182;2022-11-03T06:42:13;10.38;;;3.92;;
12593;SDS011;6362;50.208;9.182;2022-11-03T06:44:41;11.77;;;3.58;;
12593;SDS011;6362;50.208;9.182;2022-11-03T06:47:25;18.60;;;3.67;;
12593;SDS011;6362;50.208;9.182;2022-11-03T06:49:55;13.70;;;3.72;;
12593;SDS011;6362;50.208;9.182;2022-11-03T06:52:27;13.88;;;3.40;;
12593;SDS011;6362;50.208;9.182;2022-11-03T06:57:29;7.15;;;3.38;;
12593;SDS011;6362;50.208;9.182;2022-11-03T06:59:59;13.02;;;3.22;;
12593;SDS011;6362;50.208;9.182;2022-11-03T07:05:22;11.18;;;3.63;;
12593;SDS011;6362;50.208;9.182;2022-11-03T07:07:51;12.95;;;3.90;;
12593;SDS011;6362;50.208;9.182;2022-11-03T07:10:21;15.93;;;3.80;;
12593;SDS011;6362;50.208;9.182;2022-11-03T07:12:48;14.75;;;2.75;;
12593;SDS011;6362;50.208;9.182;2022-11-03T07:15:19;9.93;;;3.58;;
12593;SDS011;6362;50.208;9.182;2022-11-03T07:17:49;10.77;;;3.10;;
12593;SDS011;6362;50.208;9.182;2022-11-03T07:20:16;9.45;;;3.25;;
12593;SDS011;6362;50.208;9.182;2022-11-03T07:22:42;7.72;;;2.80;;
12593;SDS011;6362;50.208;9.182;2022-11-03T07:25:13;7.10;;;2.83;;
12593;SDS011;6362;50.208;9.182;2022-11-03T07:27:41;9.13;;;2.85;;
12593;SDS011;6362;50.208;9.182;2022-11-03T07:32:32;13.95;;;3.25;;
12593;SDS011;6362;50.208;9.182;2022-11-03T07:35:21;8.63;;;2.90;;
12593;SDS011;6362;50.208;9.182;2022-11-03T07:37:52;8.18;;;2.70;;
12593;SDS011;6362;50.208;9.182;2022-11-03T07:40:22;11.02;;;3.00;;
12593;SDS011;6362;50.208;9.182;2022-11-03T07:42:49;8.65;;;3.30;;
12593;SDS011;6362;50.208;9.182;2022-11-03T07:45:29;7.93;;;2.90;;
12593;SDS011;6362;50.208;9.182;2022-11-03T07:50:29;11.57;;;3.63;;
12593;SDS011;6362;50.208;9.182;2022-11-03T07:52:55;12.90;;;3.47;;
12593;SDS011;6362;50.208;9.182;2022-11-03T07:55:20;14.73;;;3.50;;
12593;SDS011;6362;50.208;9.182;2022-11-03T07:57:45;9.75;;;3.53;;
12593;SDS011;6362;50.208;9.182;2022-11-03T08:00:13;10.65;;;3.63;;
12593;SDS011;6362;50.208;9.182;2022-11-03T08:05:23;9.75;;;3.00;;
12593;SDS011;6362;50.208;9.182;2022-11-03T08:07:49;10.32;;;3.50;;
12593;SDS011;6362;50.208;9.182;2022-11-03T08:10:14;10.25;;;3.05;;
12593;SDS011;6362;50.208;9.182;2022-11-03T08:12:40;12.05;;;3.53;;
12593;SDS011;6362;50.208;9.182;2022-11-03T08:15:05;11.85;;;3.22;;
12593;SDS011;6362;50.208;9.182;2022-11-03T08:17:31;11.32;;;3.60;;
12593;SDS011;6362;50.208;9.182;2022-11-03T08:19:56;10.48;;;3.22;;
12593;SDS011;6362;50.208;9.182;2022-11-03T08:22:22;8.43;;;3.22;;
12593;SDS011;6362;50.208;9.182;2022-11-03T08:24:50;12.52;;;3.70;;
12593;SDS011;6362;50.208;9.182;2022-11-03T08:27:15;14.35;;;3.45;;
12593;SDS011;6362;50.208;9.182;2022-11-03T08:29:41;10.73;;;3.90;;
12593;SDS011;6362;50.208;9.182;2022-11-03T08:32:06;9.50;;;3.60;;
12593;SDS011;6362;50.208;9.182;2022-11-03T08:34:32;13.18;;;3.53;;
12593;SDS011;6362;50.208;9.182;2022-11-03T08:36:57;10.88;;;3.83;;
12593;SDS011;6362;50.208;9.182;2022-11-03T08:39:22;7.57;;;3.05;;
12593;SDS011;6362;50.208;9.182;2022-11-03T08:41:48;10.20;;;3.97;;
12593;SDS011;6362;50.208;9.182;2022-11-03T08:44:13;9.25;;;3.60;;
12593;SDS011;6362;50.208;9.182;2022-11-03T08:46:39;8.88;;;3.17;;
12593;SDS011;6362;50.208;9.182;2022-11-03T08:49:04;9.43;;;3.88;;
12593;SDS011;6362;50.208;9.182;2022-11-03T08:51:29;7.03;;;2.90;;
12593;SDS011;6362;50.208;9.182;2022-11-03T08:53:55;9.80;;;2.92;;
12593;SDS011;6362;50.208;9.182;2022-11-03T08:56:20;7.75;;;2.80;;
12593;SDS011;6362;50.208;9.182;2022-11-03T08:58:46;8.57;;;2.95;;
12593;SDS011;6362;50.208;9.182;2022-11-03T09:01:12;8.07;;;3.53;;
12593;SDS011;6362;50.208;9.182;2022-11-03T09:03:38;7.88;;;3.05;;
12593;SDS011;6362;50.208;9.182;2022-11-03T09:06:04;6.03;;;2.33;;
12593;SDS011;6362;50.208;9.182;2022-11-03T09:08:30;8.43;;;2.47;;
12593;SDS011;6362;50.208;9.182;2022-11-03T09:10:56;8.25;;;2.80;;
12593;SDS011;6362;50.208;9.182;2022-11-03T09:13:21;7.82;;;2.40;;
12593;SDS011;6362;50.208;9.182;2022-11-03T09:15:47;7.57;;;2.70;;
12593;SDS011;6362;50.208;9.182;2022-11-03T09:18:12;7.38;;;2.78;;
12593;SDS011;6362;50.208;9.182;2022-11-03T09:20:37;6.18;;;2.38;;
12593;SDS011;6362;50.208;9.182;2022-11-03T09:23:03;8.07;;;2.83;;
12593;SDS011;6362;50.208;9.182;2022-11-03T09:25:28;6.40;;;2.17;;
12593;SDS011;6362;50.208;9.182;2022-11-03T09:27:54;8.02;;;1.90;;
12593;SDS011;6362;50.208;9.182;2022-11-03T09:30:19;10.73;;;2.67;;
12593;SDS011;6362;50.208;9.182;2022-11-03T09:32:45;7.10;;;2.22;;
12593;SDS011;6362;50.208;9.182;2022-11-03T09:35:10;16.52;;;2.53;;
12593;SDS011;6362;50.208;9.182;2022-11-03T09:37:36;8.90;;;1.98;;
12593;SDS011;6362;50.208;9.182;2022-11-03T09:40:01;5.97;;;1.98;;
12593;SDS011;6362;50.208;9.182;2022-11-03T09:42:28;4.68;;;1.73;;
12593;SDS011;6362;50.208;9.182;2022-11-03T09:44:55;5.93;;;1.85;;
12593;SDS011;6362;50.208;9.182;2022-11-03T09:47:26;6.63;;;1.65;;
12593;SDS011;6362;50.208;9.182;2022-11-03T09:49:56;4.32;;;1.88;;
12593;SDS011;6362;50.208;9.182;2022-11-03T09:52:22;8.25;;;1.90;;
12593;SDS011;6362;50.208;9.182;2022-11-03T09:54:49;6.53;;;1.80;;
12593;SDS011;6362;50.208;9.182;2022-11-03T09:57:16;6.53;;;1.80;;
12593;SDS011;6362;50.208;9.182;2022-11-03T09:59:43;8.85;;;2.20;;
12593;SDS011;6362;50.208;9.182;2022-11-03T10:04:50;9.20;;;2.33;;
12593;SDS011;6362;50.208;9.182;2022-11-03T10:07:17;6.95;;;1.90;;
12593;SDS011;6362;50.208;9.182;2022-11-03T10:09:47;6.60;;;1.80;;
12593;SDS011;6362;50.208;9.182;2022-11-03T10:12:14;4.32;;;1.92;;
12593;SDS011;6362;50.208;9.182;2022-11-03T10:14:41;5.88;;;1.75;;
12593;SDS011;6362;50.208;9.182;2022-11-03T10:17:09;7.53;;;2.05;;
12593;SDS011;6362;50.208;9.182;2022-11-03T10:19:50;5.38;;;2.05;;
12593;SDS011;6362;50.208;9.182;2022-11-03T10:22:20;6.10;;;2.35;;
12593;SDS011;6362;50.208;9.182;2022-11-03T10:24:45;9.00;;;2.08;;
12593;SDS011;6362;50.208;9.182;2022-11-03T10:27:21;5.60;;;1.95;;
12593;SDS011;6362;50.208;9.182;2022-11-03T10:32:31;6.10;;;2.38;;
12593;SDS011;6362;50.208;9.182;2022-11-03T10:35:00;6.60;;;2.70;;
12593;SDS011;6362;50.208;9.182;2022-11-03T10:37:27;4.88;;;2.40;;
12593;SDS011;6362;50.208;9.182;2022-11-03T10:39:54;7.97;;;2.83;;
12593;SDS011;6362;50.208;9.182;2022-11-03T10:42:25;7.22;;;3.10;;
12593;SDS011;6362;50.208;9.182;2022-11-03T10:45:13;7.43;;;3.05;;
12593;SDS011;6362;50.208;9.182;2022-11-03T10:47:41;8.25;;;2.53;;
12593;SDS011;6362;50.208;9.182;2022-11-03T10:50:23;6.70;;;2.08;;
12593;SDS011;6362;50.208;9.182;2022-11-03T10:52:50;4.88;;;2.13;;
12593;SDS011;6362;50.208;9.182;2022-11-03T10:55:17;7.55;;;2.30;;
12593;SDS011;6362;50.208;9.182;2022-11-03T10:57:43;6.75;;;3.08;;
12593;SDS011;6362;50.208;9.182;2022-11-03T11:00:13;4.75;;;1.90;;
12593;SDS011;6362;50.208;9.182;2022-11-03T11:02:40;8.60;;;2.47;;
12593;SDS011;6362;50.208;9.182;2022-11-03T11:05:18;7.80;;;2.60;;
12593;SDS011;6362;50.208;9.182;2022-11-03T11:07:45;6.95;;;2.17;;
12593;SDS011;6362;50.208;9.182;2022-11-03T11:10:13;8.32;;;2.33;;
12593;SDS011;6362;50.208;9.182;2022-11-03T11:13:03;8.23;;;2.20;;
12593;SDS011;6362;50.208;9.182;2022-11-03T11:15:48;6.68;;;2.72;;
12593;SDS011;6362;50.208;9.182;2022-11-03T11:20:57;6.05;;;2.30;;
12593;SDS011;6362;50.208;9.182;2022-11-03T11:29:32;8.02;;;2.47;;
12593;SDS011;6362;50.208;9.182;2022-11-03T11:31:37;7.05;;;2.42;;
12593;SDS011;6362;50.208;9.182;2022-11-03T11:36:46;8.93;;;2.00;;
12593;SDS011;6362;50.208;9.182;2022-11-03T11:42:07;7.05;;;2.50;;
12593;SDS011;6362;50.208;9.182;2022-11-03T11:53:16;7.32;;;2.40;;
12593;SDS011;6362;50.208;9.182;2022-11-03T11:57:49;8.80;;;2.58;;
12593;SDS011;6362;50.208;9.182;2022-11-03T12:00:22;7.00;;;2.53;;
12593;SDS011;6362;50.208;9.182;2022-11-03T12:02:50;10.00;;;2.90;;
12593;SDS011;6362;50.208;9.182;2022-11-03T12:05:18;7.93;;;3.03;;
12593;SDS011;6362;50.208;9.182;2022-11-03T12:07:49;6.85;;;2.58;;
12593;SDS011;6362;50.208;9.182;2022-11-03T12:10:15;6.78;;;2.20;;
12593;SDS011;6362;50.208;9.182;2022-11-03T12:12:44;7.60;;;2.72;;
12593;SDS011;6362;50.208;9.182;2022-11-03T12:18:45;8.95;;;2.22;;
12593;SDS011;6362;50.208;9.182;2022-11-03T12:21:06;8.73;;;2.80;;
12593;SDS011;6362;50.208;9.182;2022-11-03T12:26:00;7.75;;;2.63;;
12593;SDS011;6362;50.208;9.182;2022-11-03T12:28:30;10.13;;;2.40;;
12593;SDS011;6362;50.208;9.182;2022-11-03T12:30:56;7.30;;;2.13;;
12593;SDS011;6362;50.208;9.182;2022-11-03T12:33:22;6.47;;;2.45;;
12593;SDS011;6362;50.208;9.182;2022-11-03T12:35:47;7.45;;;2.75;;
12593;SDS011;6362;50.208;9.182;2022-11-03T12:38:13;5.97;;;2.47;;
12593;SDS011;6362;50.208;9.182;2022-11-03T12:40:38;5.30;;;2.72;;
12593;SDS011;6362;50.208;9.182;2022-11-03T12:43:03;6.88;;;2.75;;
12593;SDS011;6362;50.208;9.182;2022-11-03T12:45:29;6.15;;;2.72;;
12593;SDS011;6362;50.208;9.182;2022-11-03T12:47:54;8.55;;;3.05;;
12593;SDS011;6362;50.208;9.182;2022-11-03T12:50:20;9.73;;;2.33;;
12593;SDS011;6362;50.208;9.182;2022-11-03T12:52:45;8.43;;;3.05;;
12593;SDS011;6362;50.208;9.182;2022-11-03T12:55:10;8.45;;;2.50;;
12593;SDS011;6362;50.208;9.182;2022-11-03T12:57:36;8.43;;;3.42;;
12593;SDS011;6362;50.208;9.182;2022-11-03T13:00:02;9.82;;;3.30;;
12593;SDS011;6362;50.208;9.182;2022-11-03T13:02:29;10.40;;;3.33;;
12593;SDS011;6362;50.208;9.182;2022-11-03T13:04:55;9.07;;;2.92;;
12593;SDS011;6362;50.208;9.182;2022-11-03T13:07:20;11.77;;;3.53;;
12593;SDS011;6362;50.208;9.182;2022-11-03T13:09:46;5.82;;;2.58;;
12593;SDS011;6362;50.208;9.182;2022-11-03T13:12:11;8.70;;;3.13;;
12593;SDS011;6362;50.208;9.182;2022-11-03T13:14:55;9.80;;;2.53;;
12593;SDS011;6362;50.208;9.182;2022-11-03T13:17:21;6.88;;;2.90;;
12593;SDS011;6362;50.208;9.182;2022-11-03T13:19:46;7.03;;;2.50;;
12593;SDS011;6362;50.208;9.182;2022-11-03T13:22:12;5.93;;;2.10;;
12593;SDS011;6362;50.208;9.182;2022-11-03T13:24:37;10.23;;;2.42;;
12593;SDS011;6362;50.208;9.182;2022-11-03T13:27:03;5.75;;;2.40;;
12593;SDS011;6362;50.208;9.182;2022-11-03T13:29:28;8.23;;;2.97;;
12593;SDS011;6362;50.208;9.182;2022-11-03T13:31:53;9.38;;;2.25;;
12593;SDS011;6362;50.208;9.182;2022-11-03T13:34:19;8.18;;;2.42;;
12593;SDS011;6362;50.208;9.182;2022-11-03T13:36:44;6.65;;;2.20;;
12593;SDS011;6362;50.208;9.182;2022-11-03T13:39:10;4.50;;;2.00;;
12593;SDS011;6362;50.208;9.182;2022-11-03T13:41:36;8.40;;;2.03;;
12593;SDS011;6362;50.208;9.182;2022-11-03T13:44:02;5.95;;;2.08;;
12593;SDS011;6362;50.208;9.182;2022-11-03T13:46:27;5.75;;;2.05;;
12593;SDS011;6362;50.208;9.182;2022-11-03T13:48:53;10.25;;;2.80;;
12593;SDS011;6362;50.208;9.182;2022-11-03T13:51:18;6.07;;;2.40;;
12593;SDS011;6362;50.208;9.182;2022-11-03T13:53:45;6.15;;;2.10;;
12593;SDS011;6362;50.208;9.182;2022-11-03T13:56:11;9.23;;;2.40;;
12593;SDS011;6362;50.208;9.182;2022-11-03T13:58:37;5.63;;;2.30;;
12593;SDS011;6362;50.208;9.182;2022-11-03T14:01:02;7.07;;;1.90;;
12593;SDS011;6362;50.208;9.182;2022-11-03T14:03:28;6.03;;;2.10;;
12593;SDS011;6362;50.208;9.182;2022-11-03T14:05:53;5.72;;;1.85;;
12593;SDS011;6362;50.208;9.182;2022-11-03T14:08:19;8.75;;;1.90;;
12593;SDS011;6362;50.208;9.182;2022-11-03T14:10:44;9.07;;;2.33;;
12593;SDS011;6362;50.208;9.182;2022-11-03T14:13:10;5.22;;;1.90;;
12593;SDS011;6362;50.208;9.182;2022-11-03T14:15:36;5.75;;;2.42;;
12593;SDS011;6362;50.208;9.182;2022-11-03T14:18:01;4.72;;;1.92;;
12593;SDS011;6362;50.208;9.182;2022-11-03T14:20:26;7.30;;;1.95;;
12593;SDS011;6362;50.208;9.182;2022-11-03T14:22:52;6.93;;;2.03;;
12593;SDS011;6362;50.208;9.182;2022-11-03T14:25:18;6.68;;;1.90;;
12593;SDS011;6362;50.208;9.182;2022-11-03T14:27:44;6.18;;;2.10;;
12593;SDS011;6362;50.208;9.182;2022-11-03T14:30:11;6.07;;;1.80;;
12593;SDS011;6362;50.208;9.182;2022-11-03T14:32:37;6.70;;;1.70;;
12593;SDS011;6362;50.208;9.182;2022-11-03T14:35:02;4.97;;;1.70;;
12593;SDS011;6362;50.208;9.182;2022-11-03T14:37:28;5.07;;;1.67;;
12593;SDS011;6362;50.208;9.182;2022-11-03T14:39:53;7.13;;;1.90;;
12593;SDS011;6362;50.208;9.182;2022-11-03T14:42:19;5.20;;;1.55;;
12593;SDS011;6362;50.208;9.182;2022-11-03T14:44:45;3.97;;;1.50;;
12593;SDS011;6362;50.208;9.182;2022-11-03T14:47:12;7.75;;;2.22;;
12593;SDS011;6362;50.208;9.182;2022-11-03T14:49:39;3.88;;;1.80;;
12593;SDS011;6362;50.208;9.182;2022-11-03T14:52:04;8.25;;;2.10;;
12593;SDS011;6362;50.208;9.182;2022-11-03T14:54:31;6.57;;;2.00;;
12593;SDS011;6362;50.208;9.182;2022-11-03T14:56:57;6.15;;;2.20;;
12593;SDS011;6362;50.208;9.182;2022-11-03T14:59:23;6.32;;;2.40;;
12593;SDS011;6362;50.208;9.182;2022-11-03T15:01:50;6.47;;;2.20;;
12593;SDS011;6362;50.208;9.182;2022-11-03T15:04:16;6.20;;;2.80;;
12593;SDS011;6362;50.208;9.182;2022-11-03T15:06:41;5.90;;;2.20;;
12593;SDS011;6362;50.208;9.182;2022-11-03T15:09:08;7.47;;;2.40;;
12593;SDS011;6362;50.208;9.182;2022-11-03T15:11:34;6.80;;;2.13;;
12593;SDS011;6362;50.208;9.182;2022-11-03T15:14:00;7.85;;;2.53;;
12593;SDS011;6362;50.208;9.182;2022-11-03T15:16:26;7.05;;;2.10;;
12593;SDS011;6362;50.208;9.182;2022-11-03T15:18:52;12.90;;;2.60;;
12593;SDS011;6362;50.208;9.182;2022-11-03T15:21:17;4.82;;;2.00;;
12593;SDS011;6362;50.208;9.182;2022-11-03T15:23:43;5.93;;;1.70;;
12593;SDS011;6362;50.208;9.182;2022-11-03T15:26:08;5.53;;;1.80;;
12593;SDS011;6362;50.208;9.182;2022-11-03T15:28:36;5.55;;;1.80;;
12593;SDS011;6362;50.208;9.182;2022-11-03T15:31:01;5.68;;;1.85;;
12593;SDS011;6362;50.208;9.182;2022-11-03T15:33:27;4.72;;;1.50;;
12593;SDS011;6362;50.208;9.182;2022-11-03T15:35:52;6.68;;;1.73;;
12593;SDS011;6362;50.208;9.182;2022-11-03T15:38:18;7.50;;;2.03;;
12593;SDS011;6362;50.208;9.182;2022-11-03T15:40:44;4.80;;;1.70;;
12593;SDS011;6362;50.208;9.182;2022-11-03T15:43:09;5.32;;;1.80;;
12593;SDS011;6362;50.208;9.182;2022-11-03T15:45:35;9.30;;;2.00;;
12593;SDS011;6362;50.208;9.182;2022-11-03T15:48:00;7.68;;;2.22;;
12593;SDS011;6362;50.208;9.182;2022-11-03T15:50:26;4.90;;;1.77;;
12593;SDS011;6362;50.208;9.182;2022-11-03T15:52:52;6.75;;;1.88;;
12593;SDS011;6362;50.208;9.182;2022-11-03T15:55:18;5.50;;;1.67;;
12593;SDS011;6362;50.208;9.182;2022-11-03T15:57:44;4.53;;;1.55;;
12593;SDS011;6362;50.208;9.182;2022-11-03T16:00:10;5.65;;;1.70;;
12593;SDS011;6362;50.208;9.182;2022-11-03T16:02:36;5.93;;;1.52;;
12593;SDS011;6362;50.208;9.182;2022-11-03T16:05:02;7.22;;;1.95;;
12593;SDS011;6362;50.208;9.182;2022-11-03T16:07:28;9.15;;;1.90;;
12593;SDS011;6362;50.208;9.182;2022-11-03T16:09:54;7.45;;;1.98;;
12593;SDS011;6362;50.208;9.182;2022-11-03T16:12:20;6.82;;;2.33;;
12593;SDS011;6362;50.208;9.182;2022-11-03T16:14:48;7.13;;;1.80;;
12593;SDS011;6362;50.208;9.182;2022-11-03T16:17:14;6.25;;;1.65;;
12593;SDS011;6362;50.208;9.182;2022-11-03T16:19:39;3.65;;;1.75;;